createdAt,value
2018-06-29T00:01:46.346Z,0.70
2018-06-29T00:04:15.650Z,1.30
2018-06-29T00:06:45.142Z,0.50
2018-06-29T00:09:14.592Z,0.90
2018-06-29T00:11:43.894Z,0.60
2018-06-29T00:14:13.257Z,0.83
2018-06-29T00:16:42.740Z,0.47
2018-06-29T00:19:12.006Z,0.70
2018-06-29T00:21:42.311Z,0.40
2018-06-29T00:24:11.597Z,0.50
2018-06-29T00:26:40.892Z,0.43
2018-06-29T00:29:10.141Z,0.37
2018-06-29T00:31:39.581Z,0.70
2018-06-29T00:34:09.051Z,1.10
2018-06-29T00:36:38.568Z,1.20
2018-06-29T00:39:08.779Z,0.43
2018-06-29T00:41:38.204Z,0.50
2018-06-29T00:44:07.693Z,0.30
2018-06-29T00:46:37.160Z,0.50
2018-06-29T00:49:06.456Z,0.50
2018-06-29T00:51:35.786Z,0.60
2018-06-29T00:54:05.174Z,0.40
2018-06-29T00:56:34.444Z,0.40
2018-06-29T00:59:03.939Z,0.40
2018-06-29T01:01:33.246Z,0.50
2018-06-29T01:04:02.637Z,0.50
2018-06-29T01:06:31.930Z,0.50
2018-06-29T01:09:01.258Z,0.40
2018-06-29T01:11:30.979Z,0.50
2018-06-29T01:14:00.264Z,0.40
2018-06-29T01:16:29.900Z,0.43
2018-06-29T01:18:59.267Z,0.40
2018-06-29T01:21:28.712Z,0.47
2018-06-29T01:23:58.098Z,0.43
2018-06-29T01:26:27.416Z,0.40
2018-06-29T01:28:56.868Z,0.40
2018-06-29T01:31:26.165Z,0.70
2018-06-29T01:33:56.206Z,0.90
2018-06-29T01:36:25.675Z,0.40
2018-06-29T01:38:55.060Z,0.50
2018-06-29T01:41:24.426Z,0.60
2018-06-29T01:43:53.825Z,0.30
2018-06-29T01:46:23.640Z,0.40
2018-06-29T01:48:52.950Z,0.30
2018-06-29T01:51:22.354Z,0.43
2018-06-29T01:53:51.696Z,0.40
2018-06-29T01:56:21.005Z,0.50
2018-06-29T01:58:50.441Z,0.40
2018-06-29T02:01:19.889Z,0.60
2018-06-29T02:03:49.213Z,0.30
2018-06-29T02:06:18.652Z,0.40
2018-06-29T02:08:49.251Z,0.53
2018-06-29T02:11:18.592Z,0.40
2018-06-29T02:13:47.888Z,0.40
2018-06-29T02:16:17.188Z,0.40
2018-06-29T02:18:46.506Z,0.30
2018-06-29T02:21:15.794Z,0.30
2018-06-29T02:23:45.052Z,0.40
2018-06-29T02:26:14.581Z,0.83
2018-06-29T02:28:43.836Z,0.30
2018-06-29T02:31:13.309Z,0.47
2018-06-29T02:33:42.646Z,0.30
2018-06-29T02:36:12.114Z,0.40
2018-06-29T02:38:41.699Z,0.50
2018-06-29T02:41:11.245Z,0.30
2018-06-29T02:43:40.668Z,0.40
2018-06-29T02:46:10.647Z,0.40
2018-06-29T02:48:40.035Z,0.47
2018-06-29T02:51:09.473Z,0.37
2018-06-29T02:53:38.743Z,0.30
2018-06-29T02:56:08.325Z,0.80
2018-06-29T02:58:38.155Z,0.40
2018-06-29T03:01:07.595Z,0.40
2018-06-29T03:03:37.856Z,0.33
2018-06-29T03:06:07.235Z,0.50
2018-06-29T03:08:36.748Z,0.30
2018-06-29T03:11:06.216Z,0.30
2018-06-29T03:13:35.469Z,1.23
2018-06-29T03:16:05.034Z,0.20
2018-06-29T03:18:35.161Z,0.33
2018-06-29T03:21:05.023Z,0.40
2018-06-29T03:23:34.462Z,0.50
2018-06-29T03:26:03.956Z,0.30
2018-06-29T03:28:33.303Z,0.30
2018-06-29T03:31:02.621Z,0.40
2018-06-29T03:33:32.147Z,0.43
2018-06-29T03:36:01.423Z,0.40
2018-06-29T03:38:30.830Z,0.30
2018-06-29T03:41:00.430Z,0.40
2018-06-29T03:43:29.849Z,0.23
2018-06-29T03:45:59.472Z,0.60
2018-06-29T03:48:29.168Z,0.30
2018-06-29T03:50:58.590Z,0.40
2018-06-29T03:53:28.088Z,0.33
2018-06-29T03:55:58.515Z,0.40
2018-06-29T03:58:27.962Z,0.30
2018-06-29T04:00:57.370Z,0.40
2018-06-29T04:03:26.692Z,0.50
2018-06-29T04:05:56.043Z,0.40
2018-06-29T04:08:25.320Z,0.43
2018-06-29T04:10:54.638Z,0.50
2018-06-29T04:13:24.488Z,0.40
2018-06-29T04:15:53.866Z,0.30
2018-06-29T04:18:23.262Z,0.30
2018-06-29T04:20:52.734Z,0.30
2018-06-29T04:23:22.158Z,0.50
2018-06-29T04:25:51.509Z,0.30
2018-06-29T04:28:20.861Z,0.50
2018-06-29T04:30:50.375Z,0.30
2018-06-29T04:33:20.133Z,0.40
2018-06-29T04:35:49.671Z,0.40
2018-06-29T04:38:19.051Z,0.50
2018-06-29T04:40:48.405Z,0.50
2018-06-29T04:43:18.803Z,1.00
2018-06-29T04:45:48.196Z,0.30
2018-06-29T04:48:17.491Z,9.67
2018-06-29T04:50:46.961Z,13.83
2018-06-29T04:53:16.383Z,7.33
2018-06-29T04:55:45.547Z,1.03
2018-06-29T04:58:14.685Z,0.77
2018-06-29T05:00:43.799Z,0.83
2018-06-29T05:03:13.853Z,0.87
2018-06-29T05:05:42.902Z,0.40
2018-06-29T05:08:12.053Z,0.73
2018-06-29T05:10:41.331Z,0.90
2018-06-29T05:13:10.731Z,1.00
2018-06-29T05:15:39.803Z,0.77
2018-06-29T05:18:09.021Z,1.00
2018-06-29T05:20:38.102Z,1.40
2018-06-29T05:23:08.014Z,1.97
2018-06-29T05:25:37.045Z,1.37
2018-06-29T05:28:06.161Z,1.10
2018-06-29T05:30:35.200Z,1.00
2018-06-29T05:33:04.864Z,0.90
2018-06-29T05:35:35.166Z,0.60
2018-06-29T05:38:05.711Z,0.60
2018-06-29T05:40:34.975Z,0.60
2018-06-29T05:43:04.505Z,0.43
2018-06-29T05:45:33.951Z,0.60
2018-06-29T05:48:03.139Z,0.40
2018-06-29T05:50:32.622Z,0.70
2018-06-29T05:53:02.248Z,0.43
2018-06-29T05:55:31.540Z,1.17
2018-06-29T05:58:00.827Z,0.50
2018-06-29T06:00:30.127Z,1.00
2018-06-29T06:02:59.565Z,0.60
2018-06-29T06:05:29.081Z,0.50
2018-06-29T06:07:59.676Z,0.60
2018-06-29T06:10:29.292Z,0.27
2018-06-29T06:12:59.054Z,0.30
2018-06-29T06:15:28.539Z,0.30
2018-06-29T06:17:58.242Z,0.30
2018-06-29T06:20:29.417Z,0.73
2018-06-29T06:23:08.414Z,0.50
2018-06-29T06:25:39.287Z,0.37
2018-06-29T06:28:08.637Z,0.97
2018-06-29T06:30:37.939Z,0.40
2018-06-29T06:33:07.189Z,0.63
2018-06-29T06:35:37.613Z,0.50
2018-06-29T06:38:07.500Z,0.50
2018-06-29T06:40:36.883Z,1.03
2018-06-29T06:43:07.068Z,5.80
2018-06-29T06:45:36.841Z,2.03
2018-06-29T06:48:06.154Z,0.40
2018-06-29T06:50:35.230Z,0.50
2018-06-29T06:53:04.285Z,0.57
2018-06-29T06:55:33.396Z,0.30
2018-06-29T06:58:02.514Z,0.43
2018-06-29T07:00:31.531Z,0.30
2018-06-29T07:03:00.645Z,0.50
2018-06-29T07:05:29.971Z,0.50
2018-06-29T07:08:00.063Z,1.33
2018-06-29T07:10:29.482Z,0.50
2018-06-29T07:12:58.561Z,0.57
2018-06-29T07:15:27.743Z,0.43
2018-06-29T07:17:56.876Z,0.70
2018-06-29T07:20:25.915Z,0.20
2018-06-29T07:22:54.979Z,0.40
2018-06-29T07:25:26.612Z,0.50
2018-06-29T07:27:55.808Z,0.60
2018-06-29T07:30:25.130Z,1.43
2018-06-29T07:32:54.420Z,2.33
2018-06-29T07:35:23.876Z,3.77
2018-06-29T07:37:53.434Z,1.30
2018-06-29T07:40:22.790Z,1.70
2018-06-29T07:42:52.034Z,2.70
2018-06-29T07:45:21.560Z,2.20
2018-06-29T07:47:50.998Z,1.50
2018-06-29T07:50:20.325Z,1.17
2018-06-29T07:52:49.978Z,1.63
2018-06-29T07:55:19.345Z,1.17
2018-06-29T07:57:49.064Z,1.00
2018-06-29T08:00:18.717Z,0.90
2018-06-29T08:02:48.501Z,1.30
2018-06-29T08:05:18.034Z,0.70
2018-06-29T08:07:47.648Z,1.07
2018-06-29T08:10:18.454Z,0.90
2018-06-29T08:12:47.738Z,1.07
2018-06-29T08:15:17.060Z,1.13
2018-06-29T08:17:46.382Z,1.17
2018-06-29T08:20:15.594Z,0.90
2018-06-29T08:22:45.122Z,0.83
2018-06-29T08:25:15.611Z,0.90
2018-06-29T08:27:45.131Z,0.60
2018-06-29T08:30:15.002Z,1.70
2018-06-29T08:32:44.342Z,1.20
2018-06-29T08:35:13.763Z,0.60
2018-06-29T08:37:43.068Z,0.60
2018-06-29T08:40:12.526Z,0.70
2018-06-29T08:42:41.870Z,0.50
2018-06-29T08:45:11.249Z,0.90
2018-06-29T08:47:40.577Z,1.20
2018-06-29T08:50:09.991Z,0.40
2018-06-29T08:52:39.582Z,0.70
2018-06-29T08:55:09.197Z,0.50
2018-06-29T08:57:39.657Z,1.00
2018-06-29T09:00:09.353Z,0.80
2018-06-29T09:02:38.684Z,0.57
2018-06-29T09:05:08.863Z,0.87
2018-06-29T09:07:38.357Z,0.60
2018-06-29T09:10:07.796Z,0.50
2018-06-29T09:12:37.716Z,0.40
2018-06-29T09:15:07.294Z,2.10
2018-06-29T09:17:36.589Z,0.87
2018-06-29T09:20:06.085Z,0.40
2018-06-29T09:22:35.643Z,0.63
2018-06-29T09:25:05.655Z,0.27
2018-06-29T09:27:34.908Z,0.40
2018-06-29T09:30:04.186Z,0.30
2018-06-29T09:32:33.301Z,0.30
2018-06-29T09:35:02.850Z,0.30
2018-06-29T09:37:32.301Z,0.30
2018-06-29T09:40:01.564Z,0.30
2018-06-29T09:42:30.912Z,0.30
2018-06-29T09:45:00.277Z,0.27
2018-06-29T09:47:29.964Z,0.30
2018-06-29T09:49:59.481Z,0.40
2018-06-29T09:52:28.987Z,0.53
2018-06-29T09:54:58.503Z,0.30
2018-06-29T09:57:27.999Z,0.50
2018-06-29T09:59:57.484Z,0.77
2018-06-29T10:02:31.689Z,0.30
2018-06-29T10:04:56.689Z,0.60
2018-06-29T10:07:26.241Z,0.30
2018-06-29T10:09:55.952Z,0.40
2018-06-29T10:12:26.009Z,0.30
2018-06-29T10:14:55.375Z,0.60
2018-06-29T10:17:24.590Z,0.37
2018-06-29T10:19:53.798Z,0.30
2018-06-29T10:22:22.993Z,0.70
2018-06-29T10:24:52.056Z,0.30
2018-06-29T10:27:21.273Z,0.30
2018-06-29T10:29:50.324Z,0.83
2018-06-29T10:32:19.438Z,1.20
2018-06-29T10:34:48.484Z,0.70
2018-06-29T10:37:17.507Z,0.90
2018-06-29T10:39:46.603Z,0.40
2018-06-29T10:42:15.644Z,0.40
2018-06-29T10:44:44.846Z,0.60
2018-06-29T10:47:13.912Z,0.37
2018-06-29T10:49:43.100Z,0.47
2018-06-29T10:52:12.211Z,0.60
2018-06-29T10:54:41.837Z,0.50
2018-06-29T10:57:12.777Z,0.30
2018-06-29T10:59:42.074Z,0.30
2018-06-29T11:02:11.475Z,0.20
2018-06-29T11:04:41.369Z,0.37
2018-06-29T11:07:10.895Z,0.50
2018-06-29T11:09:40.262Z,0.30
2018-06-29T11:12:11.107Z,0.40
2018-06-29T11:14:40.752Z,0.30
2018-06-29T11:17:10.641Z,0.40
2018-06-29T11:19:40.758Z,0.37
2018-06-29T11:22:10.100Z,0.50
2018-06-29T11:24:40.389Z,0.30
2018-06-29T11:27:10.555Z,0.30
2018-06-29T11:29:39.911Z,0.33
2018-06-29T11:32:09.685Z,0.30
2018-06-29T11:34:39.270Z,0.20
2018-06-29T11:37:08.718Z,0.50
2018-06-29T11:39:38.511Z,0.30
2018-06-29T11:42:08.166Z,0.30
2018-06-29T11:44:37.617Z,0.53
2018-06-29T11:47:07.481Z,0.30
2018-06-29T11:49:36.674Z,0.30
2018-06-29T11:52:05.973Z,0.63
2018-06-29T11:54:35.712Z,0.30
2018-06-29T11:57:05.092Z,0.70
2018-06-29T11:59:34.332Z,0.33
2018-06-29T12:02:03.390Z,0.30
2018-06-29T12:04:32.555Z,0.40
2018-06-29T12:07:01.548Z,0.30
2018-06-29T12:09:30.632Z,0.53
2018-06-29T12:11:59.735Z,0.83
2018-06-29T12:14:29.553Z,0.50
2018-06-29T12:16:58.630Z,0.30
2018-06-29T12:19:27.723Z,0.30
2018-06-29T12:21:56.865Z,0.30
2018-06-29T12:24:26.450Z,0.50
2018-06-29T12:26:55.576Z,0.90
2018-06-29T12:29:24.968Z,0.33
2018-06-29T12:31:54.782Z,0.53
2018-06-29T12:34:24.282Z,0.50
2018-06-29T12:36:53.813Z,0.30
2018-06-29T12:39:24.251Z,0.33
2018-06-29T12:41:53.543Z,0.30
2018-06-29T12:44:22.824Z,0.47
2018-06-29T12:46:51.913Z,0.40
2018-06-29T12:49:21.857Z,0.43
2018-06-29T12:51:50.940Z,0.30
2018-06-29T12:54:19.984Z,0.30
2018-06-29T12:56:49.216Z,0.30
2018-06-29T12:59:18.786Z,0.40
2018-06-29T13:01:48.248Z,0.30
2018-06-29T13:04:17.794Z,0.30
2018-06-29T13:06:47.696Z,0.20
2018-06-29T13:09:18.111Z,0.73
2018-06-29T13:11:47.822Z,3.17
2018-06-29T13:14:17.696Z,0.70
2018-06-29T13:16:47.008Z,0.70
2018-06-29T13:19:16.435Z,0.70
2018-06-29T13:21:47.758Z,0.40
2018-06-29T13:24:17.172Z,0.70
2018-06-29T13:26:46.847Z,0.40
2018-06-29T13:29:16.293Z,1.20
2018-06-29T13:31:51.279Z,1.00
2018-06-29T13:34:20.873Z,0.37
2018-06-29T13:36:50.316Z,0.57
2018-06-29T13:39:20.094Z,0.70
2018-06-29T13:41:49.676Z,0.67
2018-06-29T13:44:19.369Z,0.50
2018-06-29T13:46:48.928Z,0.50
2018-06-29T13:49:19.121Z,0.43
2018-06-29T13:51:48.668Z,0.50
2018-06-29T13:54:17.704Z,0.40
2018-06-29T13:56:46.871Z,0.40
2018-06-29T13:59:16.525Z,0.90
2018-06-29T14:01:45.634Z,0.50
2018-06-29T14:04:14.757Z,0.57
2018-06-29T14:06:43.981Z,0.50
2018-06-29T14:09:14.375Z,0.40
2018-06-29T14:11:43.955Z,0.53
2018-06-29T14:14:13.061Z,0.50
2018-06-29T14:16:42.467Z,0.90
2018-06-29T14:19:12.145Z,0.40
2018-06-29T14:21:41.519Z,0.40
2018-06-29T14:24:10.918Z,0.43
2018-06-29T14:26:40.733Z,0.50
2018-06-29T14:29:10.350Z,0.50
2018-06-29T14:31:39.733Z,0.57
2018-06-29T14:34:09.960Z,0.53
2018-06-29T14:36:40.137Z,0.80
2018-06-29T14:39:10.670Z,0.80
2018-06-29T14:41:40.064Z,0.60
2018-06-29T14:44:10.243Z,1.50
2018-06-29T14:46:40.434Z,0.93
2018-06-29T14:49:10.201Z,0.50
2018-06-29T14:51:39.699Z,1.03
2018-06-29T14:54:09.096Z,1.67
2018-06-29T14:56:38.615Z,2.23
2018-06-29T14:59:08.057Z,1.47
2018-06-29T15:01:38.401Z,2.30
2018-06-29T15:04:07.720Z,2.13
2018-06-29T15:06:37.230Z,1.40
2018-06-29T15:09:09.392Z,2.23
2018-06-29T15:11:39.050Z,5.00
2018-06-29T15:14:08.714Z,3.20
2018-06-29T15:16:38.859Z,1.30
2018-06-29T15:19:08.443Z,1.10
2018-06-29T15:21:38.110Z,2.43
2018-06-29T15:24:07.544Z,1.50
2018-06-29T15:26:36.651Z,1.13
2018-06-29T15:29:05.653Z,1.70
2018-06-29T15:31:35.184Z,1.20
2018-06-29T15:34:04.602Z,1.67
2018-06-29T15:36:33.923Z,1.53
2018-06-29T15:39:03.817Z,1.43
2018-06-29T15:41:33.386Z,1.27
2018-06-29T15:44:02.616Z,1.77
2018-06-29T15:46:31.960Z,1.40
2018-06-29T15:49:01.368Z,1.40
2018-06-29T15:51:30.864Z,1.60
2018-06-29T15:54:00.197Z,2.40
2018-06-29T15:56:29.938Z,1.90
2018-06-29T15:58:59.280Z,2.67
2018-06-29T16:01:29.384Z,1.73
2018-06-29T16:03:58.764Z,2.00
2018-06-29T16:06:28.865Z,1.77
2018-06-29T16:08:58.376Z,42.27
2018-06-29T16:11:28.311Z,12.93
2018-06-29T16:13:57.862Z,6.83
2018-06-29T16:16:27.238Z,3.60
2018-06-29T16:18:56.732Z,3.10
2018-06-29T16:21:26.147Z,3.90
2018-06-29T16:23:55.597Z,2.23
2018-06-29T16:26:25.770Z,2.93
2018-06-29T16:28:55.154Z,2.67
2018-06-29T16:31:24.848Z,2.20
2018-06-29T16:33:54.342Z,2.17
2018-06-29T16:36:23.861Z,3.40
2018-06-29T16:38:53.450Z,2.50
2018-06-29T16:41:22.811Z,2.43
2018-06-29T16:43:52.322Z,3.37
2018-06-29T16:46:21.765Z,3.00
2018-06-29T16:48:51.265Z,3.63
2018-06-29T16:51:20.693Z,6.27
2018-06-29T16:53:50.141Z,6.33
2018-06-29T16:56:19.482Z,3.60
2018-06-29T16:58:49.239Z,4.40
2018-06-29T17:01:19.496Z,4.63
2018-06-29T17:03:48.903Z,6.67
2018-06-29T17:06:18.289Z,5.80
2018-06-29T17:08:47.836Z,3.83
2018-06-29T17:11:17.404Z,4.40
2018-06-29T17:13:46.841Z,3.87
2018-06-29T17:16:16.163Z,3.63
2018-06-29T17:18:46.012Z,4.50
2018-06-29T17:21:15.375Z,3.50
2018-06-29T17:23:45.683Z,3.73
2018-06-29T17:26:14.918Z,3.50
2018-06-29T17:28:44.917Z,2.87
2018-06-29T17:31:14.461Z,5.30
2018-06-29T17:33:44.719Z,3.93
2018-06-29T17:36:13.799Z,4.20
2018-06-29T17:38:44.696Z,7.10
2018-06-29T17:41:13.718Z,6.03
2018-06-29T17:43:42.806Z,5.63
2018-06-29T17:46:11.914Z,4.40
2018-06-29T17:48:41.096Z,4.27
2018-06-29T17:51:10.260Z,4.63
2018-06-29T17:53:39.490Z,4.60
2018-06-29T17:56:08.701Z,4.37
2018-06-29T17:58:37.723Z,3.60
2018-06-29T18:01:06.995Z,3.80
2018-06-29T18:03:36.258Z,3.80
2018-06-29T18:06:05.902Z,4.63
2018-06-29T18:08:35.461Z,4.73
2018-06-29T18:11:04.929Z,5.20
2018-06-29T18:13:34.410Z,4.90
2018-06-29T18:16:03.548Z,4.80
2018-06-29T18:18:32.753Z,5.70
2018-06-29T18:21:02.040Z,5.07
2018-06-29T18:23:31.915Z,5.23
2018-06-29T18:26:01.008Z,4.90
2018-06-29T18:28:30.133Z,4.87
2018-06-29T18:30:59.755Z,6.17
2018-06-29T18:33:28.964Z,6.03
2018-06-29T18:35:58.149Z,5.10
2018-06-29T18:38:27.748Z,5.10
2018-06-29T18:40:56.856Z,6.67
2018-06-29T18:43:26.078Z,5.40
2018-06-29T18:45:55.137Z,6.20
2018-06-29T18:48:25.383Z,6.60
2018-06-29T18:50:55.159Z,5.63
2018-06-29T18:53:26.708Z,5.60
2018-06-29T18:55:55.898Z,5.03
2018-06-29T18:58:25.204Z,5.77
2018-06-29T19:00:54.454Z,5.70
2018-06-29T19:03:23.608Z,4.90
2018-06-29T19:05:52.980Z,6.03
2018-06-29T19:08:22.374Z,6.00
2018-06-29T19:10:54.273Z,6.27
2018-06-29T19:13:23.645Z,5.87
2018-06-29T19:15:53.910Z,5.00
2018-06-29T19:18:24.402Z,5.53
2018-06-29T19:20:53.517Z,5.53
2018-06-29T19:23:23.684Z,5.00
2018-06-29T19:25:54.520Z,4.80
2018-06-29T19:28:23.833Z,5.73
2018-06-29T19:30:54.570Z,5.57
2018-06-29T19:33:24.388Z,5.43
2018-06-29T19:35:57.407Z,5.10
2018-06-29T19:38:28.874Z,5.63
2018-06-29T19:40:59.268Z,5.93
2018-06-29T19:43:29.809Z,6.50
2018-06-29T19:46:00.175Z,5.03
2018-06-29T19:48:29.703Z,6.00
2018-06-29T19:50:59.195Z,5.50
2018-06-29T19:53:28.722Z,6.27
2018-06-29T19:55:58.478Z,6.40
2018-06-29T19:58:27.903Z,6.80
2018-06-29T20:00:57.386Z,6.03
2018-06-29T20:03:27.060Z,5.47
2018-06-29T20:05:56.476Z,4.87
2018-06-29T20:08:25.796Z,5.57
2018-06-29T20:10:55.998Z,5.40
2018-06-29T20:13:25.488Z,5.97
2018-06-29T20:15:55.342Z,6.20
2018-06-29T20:18:24.674Z,6.27
2018-06-29T20:20:54.266Z,5.37
2018-06-29T20:23:24.979Z,5.70
2018-06-29T20:25:54.443Z,5.80
2018-06-29T20:28:23.757Z,6.63
2018-06-29T20:30:53.142Z,5.90
2018-06-29T20:33:23.012Z,5.97
2018-06-29T20:35:52.401Z,5.67
2018-06-29T20:38:21.795Z,6.40
2018-06-29T20:40:51.134Z,5.63
2018-06-29T20:43:20.512Z,6.10
2018-06-29T20:45:49.864Z,6.10
2018-06-29T20:48:19.435Z,6.03
2018-06-29T20:50:49.738Z,6.07
2018-06-29T20:53:21.076Z,6.83
2018-06-29T20:55:51.613Z,6.27
2018-06-29T20:58:21.015Z,5.63
2018-06-29T21:00:50.415Z,6.40
2018-06-29T21:03:19.830Z,6.90
2018-06-29T21:05:49.274Z,6.03
2018-06-29T21:08:18.746Z,6.03
2018-06-29T21:10:48.125Z,6.00
2018-06-29T21:13:17.514Z,5.80
2018-06-29T21:15:47.013Z,6.00
2018-06-29T21:18:16.431Z,6.43
2018-06-29T21:20:45.945Z,5.70
2018-06-29T21:23:15.318Z,5.23
2018-06-29T21:25:44.713Z,4.47
2018-06-29T21:28:14.138Z,6.60
2018-06-29T21:30:43.457Z,6.47
2018-06-29T21:33:12.991Z,5.43
2018-06-29T21:35:42.278Z,6.60
2018-06-29T21:38:11.610Z,6.40
2018-06-29T21:40:41.019Z,6.20
2018-06-29T21:43:10.472Z,6.47
2018-06-29T21:45:40.091Z,6.00
2018-06-29T21:48:10.261Z,8.07
2018-06-29T21:50:39.891Z,7.43
2018-06-29T21:53:09.453Z,8.47
2018-06-29T21:55:38.889Z,8.33
2018-06-29T21:58:11.298Z,7.10
2018-06-29T22:00:40.937Z,6.00
2018-06-29T22:03:11.542Z,6.87
2018-06-29T22:05:42.164Z,5.30
2018-06-29T22:08:11.989Z,6.70
2018-06-29T22:10:41.623Z,5.60
2018-06-29T22:13:11.045Z,4.80
2018-06-29T22:15:40.565Z,6.07
2018-06-29T22:18:10.240Z,5.87
2018-06-29T22:20:39.559Z,6.17
2018-06-29T22:23:09.988Z,5.87
2018-06-29T22:25:39.349Z,4.87
2018-06-29T22:28:08.708Z,5.23
2018-06-29T22:30:38.033Z,5.83
2018-06-29T22:33:07.559Z,7.57
2018-06-29T22:35:36.859Z,5.60
2018-06-29T22:38:06.816Z,7.33
2018-06-29T22:40:41.104Z,5.83
2018-06-29T22:43:10.618Z,7.20
2018-06-29T22:45:39.899Z,6.13
2018-06-29T22:48:09.187Z,7.60
2018-06-29T22:50:38.475Z,6.17
2018-06-29T22:53:08.006Z,6.77
2018-06-29T22:55:37.404Z,7.93
2018-06-29T22:58:11.019Z,6.13
2018-06-29T23:00:40.279Z,6.00
2018-06-29T23:03:12.149Z,6.43
2018-06-29T23:05:41.630Z,5.87
2018-06-29T23:08:12.040Z,6.07
2018-06-29T23:10:41.515Z,6.93
2018-06-29T23:13:11.277Z,6.13
2018-06-29T23:15:40.645Z,5.70
2018-06-29T23:18:10.047Z,6.63
2018-06-29T23:20:39.662Z,5.00
2018-06-29T23:23:09.051Z,6.43
2018-06-29T23:25:38.584Z,6.57
2018-06-29T23:28:07.994Z,6.13
2018-06-29T23:30:37.385Z,5.70
2018-06-29T23:33:11.134Z,5.20
2018-06-29T23:35:41.055Z,6.40
2018-06-29T23:38:11.558Z,5.90
2018-06-29T23:40:40.907Z,6.40
2018-06-29T23:43:10.391Z,5.17
2018-06-29T23:45:39.788Z,5.63
2018-06-29T23:48:09.075Z,5.47
2018-06-29T23:50:38.714Z,5.60
2018-06-29T23:53:08.095Z,5.00
2018-06-29T23:55:37.827Z,5.67
2018-06-29T23:58:07.996Z,5.43
